Time;durP1;ratioP1;P1;durP2;ratioP2;P2;SDS_P1;SDS_P2;PMS_P1;PMS_P2;Temp;Humidity;BMP_temperature;BMP_pressure;BME280_temperature;BME280_humidity;BME280_pressure;Samples;Min_cycle;Max_cycle;Signal;HPM_P1;HPM_P2
2021/08/17 00:01:08;;;;;;;25.30;4.03;;;14.60;99.90;;;;;;5030116;28;20401;-86
2021/08/17 00:03:34;;;;;;;22.40;4.78;;;14.60;99.90;;;;;;5032263;28;20120;-86
2021/08/17 00:06:01;;;;;;;21.27;4.22;;;14.60;99.90;;;;;;5064784;28;20124;-86
2021/08/17 00:08:28;;;;;;;23.73;4.32;;;14.60;99.90;;;;;;5032325;28;20499;-85
2021/08/17 00:10:53;;;;;;;25.00;4.88;;;14.60;99.90;;;;;;5048107;28;20053;-86
2021/08/17 00:13:20;;;;;;;17.23;3.72;;;14.50;99.90;;;;;;5064987;28;20473;-85
2021/08/17 00:15:47;;;;;;;26.92;4.28;;;14.40;99.90;;;;;;5049913;28;20052;-85
2021/08/17 00:18:14;;;;;;;24.20;5.38;;;14.30;99.90;;;;;;5061266;28;20811;-86
2021/08/17 00:20:41;;;;;;;20.02;4.53;;;14.20;99.90;;;;;;5048727;28;20044;-85
2021/08/17 00:23:07;;;;;;;24.50;5.28;;;14.00;99.90;;;;;;5027937;28;20059;-86
2021/08/17 00:25:34;;;;;;;24.20;4.68;;;13.80;99.90;;;;;;5039671;28;20690;-87
2021/08/17 00:28:00;;;;;;;23.20;4.72;;;13.80;99.90;;;;;;5030649;28;20040;-87
2021/08/17 00:30:26;;;;;;;19.90;4.47;;;13.80;99.90;;;;;;5030596;28;20406;-87
2021/08/17 00:32:52;;;;;;;29.58;5.68;;;13.90;99.90;;;;;;5049593;28;20449;-86
2021/08/17 00:35:17;;;;;;;23.08;4.13;;;14.00;99.90;;;;;;5030951;28;20115;-86
2021/08/17 00:37:44;;;;;;;23.65;4.50;;;14.00;99.90;;;;;;5048782;28;20123;-86
2021/08/17 00:40:10;;;;;;;21.75;3.58;;;14.10;99.90;;;;;;5048569;28;20538;-86
2021/08/17 00:42:45;;;;;;;25.60;4.57;;;14.00;99.90;;;;;;5031542;28;20044;-85
2021/08/17 00:45:12;;;;;;;23.52;4.47;;;14.10;99.90;;;;;;5048776;28;20098;-85
2021/08/17 00:47:39;;;;;;;14.77;3.40;;;14.10;99.90;;;;;;5064873;28;20469;-85
2021/08/17 00:50:05;;;;;;;24.85;4.60;;;14.10;99.90;;;;;;5063984;28;20045;-85
2021/08/17 00:52:32;;;;;;;26.02;3.83;;;14.00;99.90;;;;;;5038272;28;20059;-85
2021/08/17 00:54:57;;;;;;;25.08;3.55;;;14.00;99.90;;;;;;5059557;28;20461;-86
2021/08/17 00:57:24;;;;;;;24.10;3.97;;;14.00;99.90;;;;;;5064386;28;20068;-85
2021/08/17 00:59:49;;;;;;;24.13;4.07;;;13.90;99.90;;;;;;5049538;28;20041;-85
2021/08/17 01:02:15;;;;;;;23.65;3.97;;;14.00;99.90;;;;;;5063833;28;20037;-85
2021/08/17 01:04:41;;;;;;;21.30;5.07;;;14.10;99.90;;;;;;5064864;28;20457;-85
2021/08/17 01:07:10;;;;;;;23.70;4.13;;;14.10;99.90;;;;;;5048215;28;20087;-85
2021/08/17 01:09:37;;;;;;;17.33;3.83;;;14.10;99.90;;;;;;5042295;28;20041;-85
2021/08/17 01:12:04;;;;;;;18.13;3.33;;;14.10;99.90;;;;;;5041189;28;20455;-85
2021/08/17 01:14:30;;;;;;;28.30;4.47;;;14.10;99.90;;;;;;5030987;28;20048;-85
2021/08/17 01:16:58;;;;;;;21.13;4.00;;;14.10;99.90;;;;;;5049285;28;20045;-84
2021/08/17 01:19:24;;;;;;;23.48;3.28;;;14.10;99.90;;;;;;5048002;28;20404;-85
2021/08/17 01:21:50;;;;;;;25.48;4.63;;;14.30;99.90;;;;;;5047777;28;20124;-85
2021/08/17 01:24:17;;;;;;;29.65;4.32;;;14.20;99.90;;;;;;5046797;28;20481;-85
2021/08/17 01:26:44;;;;;;;23.35;3.70;;;14.30;99.90;;;;;;5049131;28;20045;-84
2021/08/17 01:29:12;;;;;;;25.85;4.50;;;14.30;99.90;;;;;;5048434;28;20128;-85
2021/08/17 01:31:38;;;;;;;16.48;3.42;;;14.20;99.90;;;;;;5039585;28;20467;-85
2021/08/17 01:34:05;;;;;;;27.40;4.05;;;14.20;99.90;;;;;;5067746;28;20128;-84
2021/08/17 01:36:31;;;;;;;18.52;3.47;;;14.10;99.90;;;;;;5052742;28;20040;-84
2021/08/17 01:38:56;;;;;;;15.57;3.03;;;14.20;99.90;;;;;;5068569;28;20045;-84
2021/08/17 01:41:23;;;;;;;21.10;3.08;;;14.20;99.90;;;;;;5067490;28;20037;-84
2021/08/17 01:43:49;;;;;;;21.20;3.78;;;14.20;99.90;;;;;;5053257;28;20041;-84
2021/08/17 01:46:15;;;;;;;22.85;3.80;;;14.30;99.90;;;;;;5050807;28;20041;-84
2021/08/17 01:48:42;;;;;;;18.60;3.47;;;14.30;99.90;;;;;;5067997;28;20060;-86
2021/08/17 01:51:09;;;;;;;23.60;3.80;;;14.30;99.90;;;;;;5053085;28;20044;-85
2021/08/17 01:53:37;;;;;;;14.75;2.97;;;14.30;99.90;;;;;;5035128;28;20094;-85
2021/08/17 01:56:14;;;;;;;19.92;4.15;;;14.40;99.90;;;;;;5052650;28;20037;-86
2021/08/17 01:58:43;;;;;;;15.13;3.08;;;14.40;99.90;;;;;;5052601;28;20123;-84
2021/08/17 02:01:12;;;;;;;19.80;3.13;;;14.40;99.90;;;;;;5051499;28;20488;-86
2021/08/17 02:03:38;;;;;;;15.45;2.42;;;14.40;99.90;;;;;;5050959;28;20057;-86
2021/08/17 02:06:05;;;;;;;17.30;3.50;;;14.40;99.90;;;;;;5050698;28;20079;-87
2021/08/17 02:08:30;;;;;;;15.32;3.13;;;14.40;99.90;;;;;;5052281;28;20037;-86
2021/08/17 02:10:56;;;;;;;20.38;3.30;;;14.50;99.90;;;;;;5050150;28;20846;-86
2021/08/17 02:13:23;;;;;;;15.30;3.80;;;14.50;99.90;;;;;;5057321;28;20371;-85
2021/08/17 02:15:50;;;;;;;13.55;3.28;;;14.50;99.90;;;;;;5050611;28;20080;-85
2021/08/17 02:18:17;;;;;;;11.60;2.50;;;14.40;99.90;;;;;;5051785;28;20041;-85
2021/08/17 02:20:44;;;;;;;14.20;2.67;;;14.40;99.90;;;;;;5051693;28;20045;-86
2021/08/17 02:23:10;;;;;;;18.52;2.58;;;14.40;99.90;;;;;;5051550;28;20041;-85
2021/08/17 02:25:36;;;;;;;13.80;2.47;;;14.40;99.90;;;;;;5034286;28;20132;-85
2021/08/17 02:28:02;;;;;;;12.07;2.35;;;14.40;99.90;;;;;;5067567;28;20124;-85
2021/08/17 02:30:28;;;;;;;13.15;2.63;;;14.50;99.90;;;;;;5066633;28;20736;-85
2021/08/17 02:32:55;;;;;;;17.85;3.13;;;14.50;99.90;;;;;;5050717;28;20139;-85
2021/08/17 02:35:20;;;;;;;9.95;2.03;;;14.40;99.90;;;;;;5066131;28;20041;-85
2021/08/17 02:37:46;;;;;;;15.07;2.58;;;14.40;99.90;;;;;;5014571;28;20052;-86
2021/08/17 02:40:12;;;;;;;15.93;3.13;;;14.30;99.90;;;;;;5066593;28;20095;-85
2021/08/17 02:42:39;;;;;;;13.00;2.92;;;14.30;99.90;;;;;;5050924;28;20502;-86
2021/08/17 02:45:05;;;;;;;11.45;2.78;;;14.30;99.90;;;;;;5067407;28;20045;-85
2021/08/17 02:47:31;;;;;;;11.63;2.60;;;14.20;99.90;;;;;;5033569;28;20057;-85
2021/08/17 02:49:57;;;;;;;18.25;3.13;;;14.20;99.90;;;;;;5051673;28;20064;-85
2021/08/17 02:52:22;;;;;;;15.85;2.90;;;14.20;99.90;;;;;;5049328;28;20459;-85
2021/08/17 02:54:50;;;;;;;14.35;3.28;;;14.30;99.90;;;;;;5050539;28;20040;-85
2021/08/17 02:57:18;;;;;;;20.85;3.42;;;14.30;99.90;;;;;;5066069;28;20040;-85
2021/08/17 02:59:44;;;;;;;26.52;3.83;;;14.30;99.90;;;;;;5033495;28;20131;-85
2021/08/17 03:02:10;;;;;;;15.43;2.90;;;14.30;99.90;;;;;;5050777;28;20110;-86
2021/08/17 03:04:36;;;;;;;19.08;3.83;;;14.30;99.90;;;;;;5050399;28;20048;-85
2021/08/17 03:07:03;;;;;;;20.27;3.15;;;14.20;99.90;;;;;;5035629;28;20151;-85
2021/08/17 03:09:29;;;;;;;15.10;2.40;;;14.10;99.90;;;;;;5044656;28;20160;-85
2021/08/17 03:11:55;;;;;;;22.35;4.68;;;14.10;99.90;;;;;;5058351;28;20473;-84
2021/08/17 03:14:21;;;;;;;12.38;2.47;;;14.10;99.90;;;;;;5050557;28;20091;-85
2021/08/17 03:16:47;;;;;;;12.30;3.05;;;14.10;99.90;;;;;;5049202;28;20485;-85
2021/08/17 03:19:13;;;;;;;21.98;3.85;;;14.00;99.90;;;;;;5048302;28;20057;-86
2021/08/17 03:21:39;;;;;;;15.25;2.67;;;14.00;99.90;;;;;;5051178;28;20041;-84
2021/08/17 03:24:05;;;;;;;18.38;3.85;;;14.00;99.90;;;;;;5033587;28;20047;-85
2021/08/17 03:26:31;;;;;;;13.07;2.80;;;14.00;99.90;;;;;;5053340;28;20599;-85
2021/08/17 03:28:56;;;;;;;18.73;3.05;;;13.90;99.90;;;;;;5066470;28;20047;-85
2021/08/17 03:31:22;;;;;;;10.20;2.65;;;13.90;99.90;;;;;;5047162;28;20048;-85
2021/08/17 03:33:48;;;;;;;13.40;3.30;;;14.00;99.90;;;;;;5066598;28;20469;-85
2021/08/17 03:36:14;;;;;;;19.08;3.28;;;13.90;99.90;;;;;;5048231;28;20067;-86
2021/08/17 03:38:40;;;;;;;13.48;3.08;;;13.90;99.90;;;;;;5049983;28;20044;-85
2021/08/17 03:41:05;;;;;;;13.13;2.20;;;14.00;99.90;;;;;;5066275;28;20045;-85
2021/08/17 03:43:34;;;;;;;14.75;2.63;;;14.00;99.90;;;;;;5036246;28;20037;-86
2021/08/17 03:46:00;;;;;;;14.25;3.13;;;14.10;99.90;;;;;;5049386;28;20040;-87
2021/08/17 03:48:26;;;;;;;19.73;3.30;;;14.10;99.90;;;;;;5064885;28;20059;-86
2021/08/17 03:50:52;;;;;;;25.38;3.92;;;14.10;99.90;;;;;;5065486;28;20041;-85
2021/08/17 03:53:18;;;;;;;10.43;2.42;;;14.00;99.90;;;;;;5048900;28;20136;-86
2021/08/17 03:55:43;;;;;;;22.33;2.83;;;14.00;99.90;;;;;;5050402;28;20048;-85
2021/08/17 03:58:09;;;;;;;21.60;2.88;;;13.90;99.90;;;;;;5065857;28;20071;-85
2021/08/17 04:00:36;;;;;;;20.00;3.38;;;14.00;99.90;;;;;;5048427;28;20051;-85
2021/08/17 04:03:02;;;;;;;16.33;2.75;;;13.90;99.90;;;;;;5065779;28;20045;-85
2021/08/17 04:05:28;;;;;;;20.92;3.30;;;14.00;99.90;;;;;;5047325;28;20045;-85
2021/08/17 04:07:54;;;;;;;11.73;2.30;;;13.90;99.90;;;;;;5065626;28;20052;-85
2021/08/17 04:10:21;;;;;;;15.13;2.95;;;13.90;99.90;;;;;;5036805;28;20043;-85
2021/08/17 04:12:47;;;;;;;14.82;3.08;;;13.90;99.90;;;;;;5047929;28;20056;-84
2021/08/17 04:15:14;;;;;;;21.77;4.28;;;13.90;99.90;;;;;;5065556;28;20040;-85
2021/08/17 04:17:40;;;;;;;11.27;2.75;;;13.80;99.90;;;;;;5031674;28;20041;-85
2021/08/17 04:20:08;;;;;;;18.52;3.15;;;13.80;99.90;;;;;;5039056;28;20076;-84
2021/08/17 04:22:35;;;;;;;29.45;3.10;;;13.80;99.90;;;;;;5044484;28;20037;-84
2021/08/17 04:25:02;;;;;;;28.23;3.53;;;13.80;99.90;;;;;;5050216;28;20464;-83
2021/08/17 04:27:29;;;;;;;22.85;3.55;;;13.80;99.90;;;;;;5049140;28;20493;-84
2021/08/17 04:29:55;;;;;;;21.38;2.70;;;13.70;99.90;;;;;;5035744;28;20073;-83
2021/08/17 04:32:20;;;;;;;14.75;3.50;;;13.80;99.90;;;;;;5031107;28;20079;-84
2021/08/17 04:34:46;;;;;;;10.23;2.22;;;13.80;99.90;;;;;;5049801;28;20052;-84
2021/08/17 04:37:12;;;;;;;20.20;4.20;;;13.90;99.90;;;;;;5049737;28;20497;-83
2021/08/17 04:39:38;;;;;;;19.02;3.15;;;13.90;99.90;;;;;;5047474;28;20414;-84
2021/08/17 04:42:04;;;;;;;21.77;3.38;;;13.90;99.90;;;;;;5011568;28;20481;-83
2021/08/17 04:44:30;;;;;;;17.33;3.47;;;13.90;99.90;;;;;;5057943;28;20037;-84
2021/08/17 04:46:56;;;;;;;18.88;3.92;;;13.80;99.90;;;;;;5048378;28;20091;-83
2021/08/17 04:49:22;;;;;;;17.95;2.78;;;13.90;99.90;;;;;;5043943;28;20057;-85
2021/08/17 04:51:48;;;;;;;22.52;3.75;;;13.90;99.90;;;;;;5061177;28;20107;-84
2021/08/17 04:54:14;;;;;;;13.23;2.78;;;13.90;99.90;;;;;;5029852;28;20064;-84
2021/08/17 04:56:39;;;;;;;18.90;2.78;;;13.90;99.90;;;;;;5027352;28;20077;-84
2021/08/17 04:59:05;;;;;;;14.10;3.08;;;13.90;99.90;;;;;;5061651;28;20049;-84
2021/08/17 05:01:31;;;;;;;11.68;2.42;;;13.90;99.90;;;;;;5060108;28;20037;-84
2021/08/17 05:03:58;;;;;;;17.65;3.10;;;14.00;99.90;;;;;;5044176;28;20872;-83
2021/08/17 05:06:24;;;;;;;14.68;2.50;;;13.90;99.90;;;;;;5052112;28;20056;-85
2021/08/17 05:08:50;;;;;;;20.85;3.33;;;14.00;99.90;;;;;;5041074;28;20478;-84
2021/08/17 05:11:16;;;;;;;14.10;2.55;;;14.10;99.90;;;;;;5044599;28;20037;-84
2021/08/17 05:13:42;;;;;;;15.93;2.80;;;14.10;99.90;;;;;;5021395;28;20853;-84
2021/08/17 05:16:07;;;;;;;18.88;3.17;;;14.10;99.90;;;;;;5044306;28;20084;-84
2021/08/17 05:18:34;;;;;;;15.73;2.70;;;14.20;99.90;;;;;;5060535;28;20042;-84
2021/08/17 05:21:01;;;;;;;20.23;2.63;;;14.30;99.90;;;;;;5044386;28;20041;-84
2021/08/17 05:23:28;;;;;;;15.82;2.92;;;14.40;99.90;;;;;;5060589;28;20044;-83
2021/08/17 05:25:54;;;;;;;14.15;3.35;;;14.40;99.90;;;;;;5029154;28;20060;-84
2021/08/17 05:28:20;;;;;;;17.45;2.90;;;14.50;99.90;;;;;;5029107;28;20116;-84
2021/08/17 05:30:47;;;;;;;16.95;3.20;;;14.60;99.90;;;;;;5044237;28;20590;-85
2021/08/17 05:33:13;;;;;;;16.95;3.20;;;14.70;99.90;;;;;;5028838;28;20108;-84
2021/08/17 05:35:40;;;;;;;18.30;3.70;;;14.80;99.90;;;;;;5043840;28;20037;-85
2021/08/17 05:38:06;;;;;;;14.55;2.63;;;14.90;99.90;;;;;;5027459;28;20128;-85
2021/08/17 05:40:32;;;;;;;18.15;3.20;;;14.90;99.90;;;;;;5060617;28;20120;-84
2021/08/17 05:42:58;;;;;;;23.30;4.40;;;15.00;99.90;;;;;;5028495;28;20041;-85
2021/08/17 05:45:24;;;;;;;18.02;4.35;;;14.90;99.90;;;;;;5028336;28;20477;-85
2021/08/17 05:47:50;;;;;;;20.30;3.75;;;15.00;99.90;;;;;;5060578;28;20050;-85
2021/08/17 05:50:19;;;;;;;18.42;3.72;;;15.00;99.90;;;;;;5027164;28;20557;-85
2021/08/17 05:52:45;;;;;;;15.40;3.40;;;15.00;99.90;;;;;;5028113;28;20153;-84
2021/08/17 05:55:11;;;;;;;19.77;3.25;;;15.00;99.90;;;;;;5060782;28;20046;-84
2021/08/17 05:57:37;;;;;;;15.18;3.50;;;15.00;99.90;;;;;;5043266;28;20045;-84
2021/08/17 06:00:06;;;;;;;14.32;3.45;;;15.10;99.90;;;;;;5042980;28;20049;-85
2021/08/17 06:02:32;;;;;;;10.70;3.40;;;15.10;99.90;;;;;;5040188;28;20053;-85
2021/08/17 06:04:57;;;;;;;19.30;3.45;;;15.20;99.90;;;;;;5027814;28;20136;-85
2021/08/17 06:07:23;;;;;;;23.17;4.38;;;15.20;99.90;;;;;;5047469;28;20038;-85
2021/08/17 06:09:51;;;;;;;18.95;3.38;;;15.20;99.90;;;;;;5042963;28;20046;-86
2021/08/17 06:12:16;;;;;;;17.52;4.40;;;15.20;99.90;;;;;;5056049;28;20408;-85
2021/08/17 06:14:42;;;;;;;25.15;4.95;;;15.30;99.90;;;;;;5060255;28;20053;-85
2021/08/17 06:17:08;;;;;;;14.88;3.42;;;15.30;99.90;;;;;;5064129;28;20538;-85
2021/08/17 06:19:34;;;;;;;16.13;3.70;;;15.40;99.90;;;;;;5031254;28;20457;-85
2021/08/17 06:22:00;;;;;;;19.25;3.80;;;15.40;99.90;;;;;;5032362;28;20073;-86
2021/08/17 06:24:26;;;;;;;24.73;3.95;;;15.50;99.90;;;;;;5031327;28;20486;-86
2021/08/17 06:26:52;;;;;;;24.40;4.28;;;15.60;99.90;;;;;;5032380;28;20042;-86
2021/08/17 06:29:18;;;;;;;20.05;4.43;;;15.70;99.90;;;;;;5030776;28;20049;-86
2021/08/17 06:31:44;;;;;;;19.92;3.60;;;15.70;99.90;;;;;;5031467;28;20048;-86
2021/08/17 06:34:10;;;;;;;18.80;4.15;;;15.80;99.90;;;;;;5032227;28;20046;-85
2021/08/17 06:36:36;;;;;;;16.83;4.20;;;15.80;99.90;;;;;;5063152;28;20049;-85
2021/08/17 06:39:04;;;;;;;16.75;4.00;;;15.80;99.90;;;;;;5063707;28;20170;-85
2021/08/17 06:41:30;;;;;;;22.15;4.93;;;15.90;99.90;;;;;;5030488;28;20457;-84
2021/08/17 06:43:56;;;;;;;13.00;4.43;;;15.90;99.90;;;;;;5032100;28;20099;-85
2021/08/17 06:46:22;;;;;;;19.48;5.22;;;16.00;99.90;;;;;;5031815;28;20619;-85
2021/08/17 06:48:48;;;;;;;19.80;4.38;;;16.00;99.90;;;;;;5036254;28;20049;-86
2021/08/17 06:51:14;;;;;;;15.48;4.88;;;16.10;99.90;;;;;;5051532;28;20041;-84
2021/08/17 06:53:39;;;;;;;23.25;5.28;;;16.00;99.90;;;;;;5066274;28;20552;-84
2021/08/17 06:56:06;;;;;;;13.70;3.92;;;16.10;99.90;;;;;;5051333;28;20132;-84
2021/08/17 06:58:32;;;;;;;19.65;4.45;;;16.10;99.90;;;;;;5049519;28;20045;-85
2021/08/17 07:00:58;;;;;;;24.35;5.38;;;16.00;99.90;;;;;;5033082;28;20124;-85
2021/08/17 07:03:24;;;;;;;19.88;5.85;;;16.00;99.90;;;;;;5066862;28;20123;-85
2021/08/17 07:05:50;;;;;;;20.92;5.55;;;16.00;99.90;;;;;;5029214;28;20049;-84
2021/08/17 07:08:16;;;;;;;21.02;6.28;;;16.10;99.90;;;;;;5053856;28;20549;-85
2021/08/17 07:10:44;;;;;;;23.52;5.63;;;16.00;99.90;;;;;;5047510;28;20103;-84
2021/08/17 07:13:10;;;;;;;15.90;4.90;;;16.00;99.90;;;;;;5051588;28;20148;-84
2021/08/17 07:15:35;;;;;;;14.27;5.03;;;16.00;99.90;;;;;;5049142;28;20556;-87
2021/08/17 07:18:02;;;;;;;16.05;5.30;;;16.10;99.90;;;;;;5050267;28;20075;-85
2021/08/17 07:20:28;;;;;;;22.38;5.82;;;16.20;99.90;;;;;;5050963;28;20041;-86
2021/08/17 07:22:54;;;;;;;23.08;5.28;;;16.30;99.90;;;;;;5050593;28;20370;-86
2021/08/17 07:25:21;;;;;;;20.38;5.93;;;16.30;99.90;;;;;;5047717;28;20393;-85
2021/08/17 07:27:47;;;;;;;20.98;6.78;;;16.30;99.90;;;;;;5049228;28;20067;-85
2021/08/17 07:30:14;;;;;;;17.25;5.93;;;16.40;99.90;;;;;;5066509;28;20484;-84
2021/08/17 07:32:42;;;;;;;21.25;6.30;;;16.30;99.90;;;;;;5032238;28;20052;-85
2021/08/17 07:35:09;;;;;;;19.17;4.97;;;16.40;99.90;;;;;;5050828;28;20045;-85
2021/08/17 07:37:36;;;;;;;17.55;5.80;;;16.40;99.90;;;;;;5065395;28;20476;-85
2021/08/17 07:40:04;;;;;;;21.35;6.72;;;16.40;99.90;;;;;;5048816;28;20155;-86
2021/08/17 07:42:29;;;;;;;23.67;6.38;;;16.40;99.90;;;;;;5032536;28;20045;-85
2021/08/17 07:44:55;;;;;;;19.40;5.85;;;16.40;99.90;;;;;;5064831;28;20451;-85
2021/08/17 07:47:21;;;;;;;19.25;5.65;;;16.40;99.90;;;;;;5056293;28;20072;-84
2021/08/17 07:49:47;;;;;;;17.05;5.82;;;16.50;99.90;;;;;;5059952;28;20123;-87
2021/08/17 07:52:13;;;;;;;20.05;6.22;;;16.50;99.90;;;;;;5066178;28;20045;-84
2021/08/17 07:54:38;;;;;;;32.53;5.78;;;16.40;99.90;;;;;;5031844;28;20044;-85
2021/08/17 07:57:05;;;;;;;18.85;5.53;;;16.40;99.90;;;;;;5048748;28;20041;-85
2021/08/17 07:59:30;;;;;;;14.40;5.60;;;16.40;99.90;;;;;;5064923;28;20052;-86
2021/08/17 08:01:56;;;;;;;17.88;6.07;;;16.40;99.90;;;;;;5030186;28;20041;-85
2021/08/17 08:04:22;;;;;;;17.10;5.60;;;16.30;99.90;;;;;;5015944;28;20405;-86
2021/08/17 08:06:49;;;;;;;18.10;5.32;;;16.10;99.90;;;;;;5030848;28;20041;-85
2021/08/17 08:09:15;;;;;;;18.35;6.07;;;16.00;99.90;;;;;;5012447;28;20096;-85
2021/08/17 08:11:41;;;;;;;19.98;6.82;;;16.00;99.90;;;;;;5045628;28;20045;-85
2021/08/17 08:14:06;;;;;;;16.40;5.47;;;16.10;99.90;;;;;;5049784;28;20099;-85
2021/08/17 08:16:32;;;;;;;16.83;5.75;;;16.20;99.90;;;;;;5064812;28;20033;-85
2021/08/17 08:18:58;;;;;;;15.45;5.63;;;16.30;99.90;;;;;;5064730;28;20550;-85
2021/08/17 08:21:24;;;;;;;14.23;5.70;;;16.40;99.90;;;;;;5049298;28;20045;-85
2021/08/17 08:23:50;;;;;;;17.77;6.47;;;16.60;99.90;;;;;;5047856;28;20045;-85
2021/08/17 08:26:16;;;;;;;17.73;6.22;;;16.70;99.90;;;;;;5064021;28;20041;-85
2021/08/17 08:28:42;;;;;;;23.45;5.93;;;16.80;99.90;;;;;;5064277;28;20384;-86
2021/08/17 08:31:08;;;;;;;11.15;5.97;;;16.90;99.90;;;;;;5047497;28;20189;-85
2021/08/17 08:33:34;;;;;;;35.08;6.53;;;16.90;99.90;;;;;;5048995;28;20052;-86
2021/08/17 08:35:59;;;;;;;12.20;5.47;;;17.00;99.90;;;;;;5046691;28;20045;-85
2021/08/17 08:38:25;;;;;;;12.50;5.30;;;17.10;99.90;;;;;;5048719;28;20037;-85
2021/08/17 08:40:52;;;;;;;20.23;5.55;;;17.00;99.90;;;;;;5027536;28;20041;-84
2021/08/17 08:43:19;;;;;;;9.63;4.63;;;16.90;99.90;;;;;;5052210;28;20048;-84
2021/08/17 08:45:47;;;;;;;14.65;5.00;;;16.80;99.90;;;;;;5053369;28;20045;-84
2021/08/17 08:48:17;;;;;;;11.57;3.92;;;16.70;99.90;;;;;;5044758;28;20064;-84
2021/08/17 08:50:44;;;;;;;14.75;4.47;;;16.60;99.90;;;;;;5031996;28;20469;-84
2021/08/17 08:53:14;;;;;;;9.70;4.35;;;16.60;99.90;;;;;;5064573;28;20366;-84
2021/08/17 08:55:40;;;;;;;;;;;16.50;99.90;;;;;;5048312;28;20131;-86
2021/08/17 08:58:06;;;;;;;17.25;4.82;;;16.60;99.90;;;;;;5031016;28;20039;-84
2021/08/17 09:00:32;;;;;;;10.70;4.32;;;16.70;99.90;;;;;;5044198;28;20044;-85
2021/08/17 09:02:57;;;;;;;17.02;4.63;;;16.80;99.90;;;;;;5044729;28;20041;-83
2021/08/17 09:05:23;;;;;;;9.95;4.10;;;16.80;99.90;;;;;;5064235;28;20064;-84
2021/08/17 09:07:51;;;;;;;16.02;4.50;;;16.90;99.90;;;;;;5047885;28;20124;-84
2021/08/17 09:10:25;;;;;;;11.40;4.45;;;17.00;99.90;;;;;;5037248;28;20049;-84
2021/08/17 09:12:53;;;;;;;15.02;4.93;;;17.00;99.90;;;;;;5048603;28;20560;-84
2021/08/17 09:15:33;;;;;;;26.27;4.57;;;17.20;99.90;;;;;;5031614;28;20041;-83
2021/08/17 09:18:05;;;;;;;14.80;4.43;;;17.20;99.90;;;;;;5048180;28;20033;-85
2021/08/17 09:20:33;;;;;;;12.73;3.97;;;17.20;99.90;;;;;;5049181;28;20045;-84
2021/08/17 09:23:17;;;;;;;10.60;4.45;;;17.20;99.90;;;;;;5048382;28;20094;-85
2021/08/17 09:25:43;;;;;;;14.07;4.13;;;17.20;99.90;;;;;;5046246;28;20064;-84
2021/08/17 09:28:30;;;;;;;10.07;4.40;;;17.30;99.90;;;;;;5027521;28;20493;-84
2021/08/17 09:30:57;;;;;;;15.50;4.53;;;17.40;99.90;;;;;;5042565;28;20128;-84
2021/08/17 09:33:33;;;;;;;14.60;5.68;;;17.40;99.90;;;;;;5049283;28;20093;-84
2021/08/17 09:36:00;;;;;;;14.07;4.97;;;17.40;99.90;;;;;;5062432;28;20103;-85
2021/08/17 09:38:31;;;;;;;14.50;5.30;;;17.50;99.90;;;;;;5028961;28;20057;-85
2021/08/17 09:40:57;;;;;;;11.50;5.05;;;17.50;99.90;;;;;;5039578;28;20537;-86
2021/08/17 09:43:24;;;;;;;14.77;5.35;;;17.70;99.90;;;;;;5047081;28;20094;-85
2021/08/17 09:45:50;;;;;;;20.60;5.47;;;17.70;99.90;;;;;;5044877;28;20053;-85
2021/08/17 09:48:28;;;;;;;15.55;5.35;;;17.70;99.90;;;;;;5046981;28;20536;-85
2021/08/17 09:50:54;;;;;;;13.75;5.43;;;17.70;99.90;;;;;;5058366;28;20058;-86
2021/08/17 09:53:22;;;;;;;10.98;5.10;;;17.70;99.90;;;;;;5056087;28;20052;-86
2021/08/17 09:55:53;;;;;;;15.75;5.40;;;17.60;99.90;;;;;;5043193;28;20095;-82
2021/08/17 09:58:27;;;;;;;11.55;5.03;;;17.70;99.90;;;;;;5052206;28;20481;-85
2021/08/17 10:00:55;;;;;;;13.43;5.60;;;17.70;99.90;;;;;;5053029;28;20167;-87
2021/08/17 10:03:22;;;;;;;11.68;5.55;;;18.00;99.90;;;;;;5053829;28;20045;-89
2021/08/17 10:05:49;;;;;;;10.52;5.85;;;18.20;99.90;;;;;;5018681;28;20041;-88
2021/08/17 10:08:18;;;;;;;11.52;5.32;;;18.30;99.90;;;;;;5068982;28;20045;-88
2021/08/17 10:10:46;;;;;;;7.38;4.75;;;18.50;99.90;;;;;;5033003;28;20076;-90
2021/08/17 10:13:21;;;;;;;20.40;6.18;;;18.60;99.90;;;;;;5068255;28;20063;-88
2021/08/17 10:15:48;;;;;;;13.00;5.65;;;18.70;99.90;;;;;;5050158;28;20048;-89
2021/08/17 10:18:16;;;;;;;10.77;5.78;;;18.60;99.90;;;;;;5051982;28;20049;-86
2021/08/17 10:20:45;;;;;;;14.05;4.85;;;18.50;99.90;;;;;;5034634;28;20040;-87
2021/08/17 10:23:19;;;;;;;16.60;6.20;;;18.60;99.90;;;;;;5034494;28;20055;-87
2021/08/17 10:25:59;;;;;;;9.68;6.03;;;18.80;99.90;;;;;;5050333;28;20447;-88
2021/08/17 10:28:24;;;;;;;18.15;5.93;;;18.70;99.90;;;;;;5034262;28;20060;-87
2021/08/17 10:30:50;;;;;;;10.80;6.03;;;18.70;99.90;;;;;;5051567;28;20087;-86
2021/08/17 10:33:39;;;;;;;9.85;5.15;;;18.80;99.90;;;;;;5042090;28;20044;-85
2021/08/17 10:36:06;;;;;;;12.13;5.70;;;19.00;99.90;;;;;;5045831;28;20045;-86
2021/08/17 10:38:36;;;;;;;18.33;7.03;;;19.00;99.90;;;;;;5062720;28;20301;-87
2021/08/17 10:41:05;;;;;;;11.35;5.55;;;19.00;99.90;;;;;;5049644;28;20037;-86
2021/08/17 10:43:30;;;;;;;14.48;7.30;;;19.00;99.90;;;;;;5063826;28;20049;-87
2021/08/17 10:46:01;;;;;;;14.70;6.55;;;19.10;99.90;;;;;;5049178;28;20056;-85
2021/08/17 10:48:45;;;;;;;16.63;6.25;;;19.10;99.90;;;;;;5050694;28;20033;-85
2021/08/17 10:51:38;;;;;;;20.35;7.63;;;19.20;99.90;;;;;;5066100;28;20041;-87
2021/08/17 10:54:03;;;;;;;23.55;7.43;;;19.50;99.90;;;;;;5046425;28;20106;-85
2021/08/17 10:56:34;;;;;;;14.30;7.28;;;19.80;99.90;;;;;;5050785;28;20041;-85
2021/08/17 10:59:01;;;;;;;18.73;7.38;;;19.30;99.90;;;;;;5065565;28;20091;-85
2021/08/17 11:01:30;;;;;;;14.55;7.40;;;19.30;99.90;;;;;;5026115;28;20038;-85
2021/08/17 11:03:57;;;;;;;17.80;8.07;;;19.10;99.90;;;;;;5036368;28;20120;-86
2021/08/17 11:06:48;;;;;;;19.48;8.30;;;18.60;99.90;;;;;;5050074;28;20045;-86
2021/08/17 11:09:28;;;;;;;15.38;8.63;;;18.00;99.90;;;;;;5042018;28;20096;-86
2021/08/17 11:11:57;;;;;;;15.85;8.07;;;17.60;99.90;;;;;;5040962;28;20063;-86
2021/08/17 11:14:25;;;;;;;18.70;8.53;;;17.40;99.90;;;;;;5033171;28;20045;-85
2021/08/17 11:16:57;;;;;;;22.33;9.00;;;17.20;99.90;;;;;;5049095;28;20322;-87
2021/08/17 11:19:25;;;;;;;23.00;8.77;;;17.10;99.90;;;;;;5032948;28;20117;-85
2021/08/17 11:21:54;;;;;;;23.05;10.02;;;16.90;99.90;;;;;;5049302;28;20052;-87
2021/08/17 11:24:27;;;;;;;24.17;10.13;;;16.70;99.90;;;;;;5033638;28;20074;-85
2021/08/17 11:26:56;;;;;;;23.60;9.23;;;16.60;99.90;;;;;;5066440;28;20047;-87
2021/08/17 11:29:34;;;;;;;21.45;8.90;;;16.40;99.90;;;;;;5051204;28;20044;-86
2021/08/17 11:32:04;;;;;;;17.58;8.48;;;16.30;99.90;;;;;;5050235;28;20045;-86
2021/08/17 11:34:32;;;;;;;17.02;8.18;;;16.10;99.90;;;;;;5051519;28;20040;-85
2021/08/17 11:37:03;;;;;;;16.45;8.68;;;16.00;99.90;;;;;;5050306;28;20126;-86
2021/08/17 11:39:31;;;;;;;20.80;8.70;;;15.90;99.90;;;;;;5033394;28;20044;-85
2021/08/17 11:41:57;;;;;;;21.92;9.52;;;15.90;99.90;;;;;;5050088;28;20045;-86
2021/08/17 11:44:26;;;;;;;20.42;8.00;;;15.90;99.90;;;;;;5066278;28;20507;-86
2021/08/17 11:47:07;;;;;;;26.45;9.18;;;16.00;99.90;;;;;;5029239;28;20091;-85
2021/08/17 11:49:33;;;;;;;19.58;8.30;;;16.00;99.90;;;;;;5059190;28;20131;-85
2021/08/17 11:52:19;;;;;;;24.10;9.07;;;16.10;99.90;;;;;;5047969;28;20045;-85
2021/08/17 11:54:51;;;;;;;18.27;8.20;;;16.10;99.90;;;;;;5049303;28;20503;-86
2021/08/17 11:57:19;;;;;;;17.98;8.23;;;16.20;99.90;;;;;;5049977;28;20090;-85
2021/08/17 11:59:47;;;;;;;16.13;7.80;;;16.30;99.90;;;;;;5032664;28;20043;-85
2021/08/17 12:02:27;;;;;;;25.17;9.15;;;16.30;99.90;;;;;;5064877;28;20496;-85
2021/08/17 12:05:02;;;;;;;22.77;9.88;;;16.40;99.90;;;;;;5032214;28;20099;-85
2021/08/17 12:07:30;;;;;;;26.40;8.68;;;16.40;99.90;;;;;;5028366;28;20132;-85
2021/08/17 12:10:11;;;;;;;19.08;8.93;;;16.50;99.90;;;;;;5040729;28;20041;-88
2021/08/17 12:12:57;;;;;;;22.13;9.10;;;16.50;99.90;;;;;;5046141;28;20440;-86
2021/08/17 12:15:43;;;;;;;25.50;9.35;;;16.50;99.90;;;;;;5043556;28;20053;-85
2021/08/17 12:18:16;;;;;;;30.65;10.82;;;16.40;99.90;;;;;;5049171;28;20064;-84
2021/08/17 12:20:54;;;;;;;25.02;10.02;;;16.40;99.90;;;;;;5065624;28;20128;-88
2021/08/17 12:23:24;;;;;;;25.17;10.05;;;16.20;99.90;;;;;;5049540;28;20041;-86
2021/08/17 12:25:52;;;;;;;23.10;10.40;;;16.10;99.90;;;;;;5049433;28;20048;-86
2021/08/17 12:28:25;;;;;;;21.30;9.32;;;16.00;99.90;;;;;;5031321;28;20122;-86
2021/08/17 12:31:06;;;;;;;22.48;9.05;;;15.90;99.90;;;;;;5049646;28;20052;-85
2021/08/17 12:33:31;;;;;;;28.77;10.02;;;15.80;99.90;;;;;;5037945;28;20500;-85
2021/08/17 12:35:57;;;;;;;43.17;11.50;;;15.70;99.90;;;;;;5049511;28;20068;-85
2021/08/17 12:38:23;;;;;;;37.42;11.77;;;15.30;99.90;;;;;;5048064;28;20033;-84
2021/08/17 12:40:51;;;;;;;34.38;11.75;;;15.10;99.90;;;;;;5064718;28;20048;-85